Terminal Aerodrome Forecast
Issued by NWS Memphis, TN

Home | Current Version | Previous Version | Text Only | Print | Product List | Glossary On
Versions: 1 2 3 4 5 6 7 8 9 10 11 12 13 14 15 16 17
072
FTUS44 KMEG 221724
TAFMKL
TAF
KMKL 221724Z 2218/2318 VRB03KT P6SM VCSH SCT010 OVC015
      TEMPO 2219/2223 4SM -SHRA BR OVC009
     FM230000 33014G24KT P6SM VCSH OVC010
     FM230400 33018G25KT P6SM BKN006 OVC015
     FM231500 33012G21KT P6SM OVC018=

USA.gov is the U.S. government's official web portal to all federal, state and local government web resources and services.